Dinero, TX

9:57 AM CST on March 01, 2015 (GMT -0600)
Sunset Villas | Change Station
CLOSE
Current Station
Personal Weather Station
Location: Mathis, TX
Elevation: 120 ft
Nearby Weather Stations

Elev 120 ft 28.20 °N, 97.90 °W | Updated 52 seconds ago

Overcast
Overcast
45.4 °F
Feels Like 43 °F
N
5.1
Wind Variable Wind from NNE
Gusts 6.9 mph

Today
High -- | Low -- °F
--% Chance of Precip.
Yesterday
High -- | Low -- °F
Precip. -- in
6:56 AM 6:31 PM
Waxing Gibbous, 86% visible
Pressure 30.23 in
Visibility 0.5 miles
Clouds Overcast 200 ft
Windchill 43 °F
Dew Point 45 °F
Humidity 100%
Rainfall 0.00 in
Snow Depth Not available.
UV 1 out of 12
Pollen 7.30 out of 12
Air Quality Not available.
Flu Activity Not available.
METAR KBEA 011535Z AUTO 01004KT 1/2SM FG OVC002 07/07 A3023 RMK AO2 T00650065

More Conditions Fewer Conditions

Pressure 30.23 in
Visibility 0.5 miles
Clouds Overcast 200 ft
Windchill 43 °F
Dew Point 45 °F
Humidity 100%
Rainfall 0.00 in
Snow Depth Not available.
UV 1 out of 12
Pollen 7.30 out of 12
Air Quality Not available.
Flu Activity Not available.
METAR KBEA 011535Z AUTO 01004KT 1/2SM FG OVC002 07/07 A3023 RMK AO2 T00650065

More Conditions Fewer Conditions

Nowcast | as of 8:34 am CST on March 1, 2015

Areas of light rain and drizzle will continue through 11 am CST across the coastal Bend and adjacent coastal waters. Only trace rainfall amounts are expected. In addition...visibility across the region will be reduced 1 to 3 miles or less at times due to fog.

×

10-Day Weather Forecast

Almanac

Astronomy

Mar. 01, 2015 Rise Set
Actual Time
Civil Twilight
Nautical Twilight
Astronomical Twilight
Moon
Length of Visible Light
Length of Day
Tomorrow will be .
, % of the Moon is Illuminated

Today's Extremes

State Highs State Lows

Community

WunderPhotos

Upload Photos

1,801,435 photos uploaded!

WunderBlogs® & News

Nearby

Air Quality

  Air Quality AQ Index Pollutant
Not available.

Snow Depth

Station Depth Elevation

Earthquake Activity

City Distance Mag. Time & Date
Minimum magnitude displayed is 2.5.

Coastal Water Temperatures

Place Temperature

Nearby Weather Stations